Beesleys Point, New Jersey
Current Conditions -  °F | °C
As of 5:54 AM on Thursday 27 Nov 2014 (Local Time) from KACY Reporting Station
Clear Clear  
Wind Chill: 30°   Ceiling: Unl
Heat Index: 34°   Visibility: 10mi
Dew Point: 32°   Wind: 5mph
Humidity: 92%   Direction: 300°WNW
Pressure: 29.96"   Gusts: NA
Location:  39.2675°N, 74.6627°W
Report Text: KACY 271054Z 30004KT 10SM CLR 01/00 A2996 RMK AO2 SLP147 T00110000
Loading
Personal Weather Stations






























Interactive Weather Map New forecast layout! Learn more

10-Day Weather Forecast

Advertisements
Track Severe Weather on mobile